createdAt,value
2023-08-21T00:02:29.369Z,7.57
2023-08-21T00:05:15.501Z,8.32
2023-08-21T00:08:01.470Z,7.80
2023-08-21T00:10:47.617Z,8.02
2023-08-21T00:13:33.500Z,8.07
2023-08-21T00:16:19.659Z,8.07
2023-08-21T00:19:05.928Z,8.05
2023-08-21T00:21:51.704Z,8.65
2023-08-21T00:24:37.779Z,7.55
2023-08-21T00:27:23.665Z,6.88
2023-08-21T00:30:10.448Z,7.03
2023-08-21T00:32:56.908Z,7.32
2023-08-21T00:35:43.933Z,7.40
2023-08-21T00:38:30.114Z,7.72
2023-08-21T00:41:16.414Z,8.77
2023-08-21T00:44:02.425Z,7.85
2023-08-21T00:46:48.787Z,7.28
2023-08-21T00:49:35.957Z,7.18
2023-08-21T00:52:22.054Z,7.82
2023-08-21T00:55:09.231Z,7.72
2023-08-21T00:57:56.065Z,8.77
2023-08-21T01:00:43.212Z,7.32
2023-08-21T01:03:29.303Z,7.60
2023-08-21T01:06:15.956Z,7.85
2023-08-21T01:09:09.202Z,6.85
2023-08-21T01:12:17.247Z,6.47
2023-08-21T01:15:11.008Z,7.75
2023-08-21T01:17:57.216Z,6.82
2023-08-21T01:20:43.919Z,7.10
2023-08-21T01:23:39.662Z,6.13
2023-08-21T01:26:25.633Z,6.97
2023-08-21T01:29:12.749Z,7.32
2023-08-21T01:32:15.823Z,7.10
2023-08-21T01:35:02.807Z,6.95
2023-08-21T01:37:49.443Z,6.65
2023-08-21T01:40:35.718Z,6.57
2023-08-21T01:43:21.873Z,6.60
2023-08-21T01:46:08.065Z,7.13
2023-08-21T01:48:54.041Z,7.03
2023-08-21T01:51:40.109Z,7.10
2023-08-21T01:54:26.218Z,6.68
2023-08-21T01:57:12.182Z,6.50
2023-08-21T01:59:58.110Z,7.00
2023-08-21T02:02:44.267Z,6.63
2023-08-21T02:05:30.537Z,6.70
2023-08-21T02:08:16.521Z,6.57
2023-08-21T02:11:02.995Z,6.85
2023-08-21T02:13:49.575Z,6.90
2023-08-21T02:16:35.779Z,7.55
2023-08-21T02:19:21.759Z,8.00
2023-08-21T02:22:07.738Z,6.97
2023-08-21T02:24:53.718Z,7.25
2023-08-21T02:27:39.821Z,8.50
2023-08-21T02:30:28.485Z,7.47
2023-08-21T02:33:14.800Z,7.93
2023-08-21T02:36:00.686Z,8.05
2023-08-21T02:38:51.206Z,7.32
2023-08-21T02:41:37.528Z,8.27
2023-08-21T02:44:23.612Z,7.75
2023-08-21T02:47:09.379Z,7.78
2023-08-21T02:49:56.040Z,8.07
2023-08-21T02:52:42.256Z,8.30
2023-08-21T02:55:28.449Z,8.10
2023-08-21T02:58:14.447Z,7.90
2023-08-21T03:01:00.338Z,8.18
2023-08-21T03:03:46.222Z,6.85
2023-08-21T03:06:32.271Z,8.02
2023-08-21T03:09:18.185Z,8.45
2023-08-21T03:12:04.842Z,7.78
2023-08-21T03:14:51.115Z,8.23
2023-08-21T03:17:37.189Z,7.78
2023-08-21T03:20:23.447Z,8.30
2023-08-21T03:23:09.468Z,7.82
2023-08-21T03:25:55.454Z,8.75
2023-08-21T03:28:41.450Z,8.93
2023-08-21T03:31:27.410Z,8.27
2023-08-21T03:34:14.006Z,8.70
2023-08-21T03:37:00.631Z,9.10
2023-08-21T03:39:49.998Z,9.00
2023-08-21T03:42:36.206Z,8.63
2023-08-21T03:45:22.545Z,8.27
2023-08-21T03:48:08.545Z,8.80
2023-08-21T03:50:54.841Z,8.75
2023-08-21T03:53:40.991Z,8.75
2023-08-21T03:56:26.973Z,8.88
2023-08-21T03:59:13.836Z,8.43
2023-08-21T04:02:00.445Z,8.75
2023-08-21T04:04:46.554Z,9.05
2023-08-21T04:07:32.694Z,8.80
2023-08-21T04:10:18.577Z,9.18
2023-08-21T04:13:04.512Z,9.93
2023-08-21T04:15:51.216Z,9.75
2023-08-21T04:18:42.171Z,8.75
2023-08-21T04:21:28.622Z,9.35
2023-08-21T04:24:14.774Z,9.50
2023-08-21T04:27:00.710Z,8.57
2023-08-21T04:29:46.641Z,9.38
2023-08-21T04:32:32.810Z,8.52
2023-08-21T04:35:18.866Z,8.52
2023-08-21T04:38:04.750Z,8.43
2023-08-21T04:40:50.909Z,9.80
2023-08-21T04:43:36.824Z,8.38
2023-08-21T04:46:24.289Z,9.18
2023-08-21T04:49:10.456Z,8.75
2023-08-21T04:51:56.288Z,9.35
2023-08-21T04:54:43.234Z,8.38
2023-08-21T04:57:30.289Z,8.68
2023-08-21T05:00:18.169Z,8.35
2023-08-21T05:03:05.225Z,8.55
2023-08-21T05:05:55.528Z,8.18
2023-08-21T05:08:42.489Z,8.70
2023-08-21T05:11:30.061Z,9.63
2023-08-21T05:14:17.302Z,8.38
2023-08-21T05:17:03.545Z,8.35
2023-08-21T05:19:49.570Z,8.75
2023-08-21T05:22:37.374Z,8.13
2023-08-21T05:25:23.955Z,8.45
2023-08-21T05:28:10.158Z,8.77
2023-08-21T05:30:56.428Z,8.23
2023-08-21T05:33:42.470Z,8.77
2023-08-21T05:36:28.677Z,8.70
2023-08-21T05:39:15.694Z,8.57
2023-08-21T05:42:01.905Z,8.05
2023-08-21T05:44:48.187Z,8.52
2023-08-21T05:47:34.548Z,7.97
2023-08-21T05:50:20.592Z,8.43
2023-08-21T05:53:07.440Z,8.48
2023-08-21T05:55:55.063Z,7.95
2023-08-21T05:58:41.686Z,9.35
2023-08-21T06:01:27.608Z,8.70
2023-08-21T06:04:14.088Z,8.23
2023-08-21T06:07:03.579Z,7.78
2023-08-21T06:09:49.468Z,8.63
2023-08-21T06:12:35.855Z,8.20
2023-08-21T06:15:22.062Z,8.15
2023-08-21T06:18:08.197Z,8.45
2023-08-21T06:20:56.407Z,8.43
2023-08-21T06:23:42.692Z,7.93
2023-08-21T06:26:28.592Z,8.27
2023-08-21T06:29:14.889Z,8.68
2023-08-21T06:32:00.987Z,8.30
2023-08-21T06:34:46.951Z,9.00
2023-08-21T06:37:33.010Z,8.88
2023-08-21T06:40:19.167Z,9.40
2023-08-21T06:43:07.312Z,8.85
2023-08-21T06:45:54.241Z,9.10
2023-08-21T06:48:44.309Z,8.65
2023-08-21T06:51:30.162Z,8.57
2023-08-21T06:54:16.343Z,8.65
2023-08-21T06:57:02.083Z,8.80
2023-08-21T06:59:47.958Z,8.50
2023-08-21T07:02:34.068Z,8.07
2023-08-21T07:05:20.215Z,9.02
2023-08-21T07:08:06.798Z,7.93
2023-08-21T07:10:53.711Z,8.30
2023-08-21T07:13:40.160Z,7.82
2023-08-21T07:16:27.591Z,8.98
2023-08-21T07:19:13.500Z,8.63
2023-08-21T07:21:59.456Z,8.70
2023-08-21T07:24:45.527Z,8.82
2023-08-21T07:27:32.994Z,8.10
2023-08-21T07:30:19.067Z,8.85
2023-08-21T07:33:06.446Z,8.73
2023-08-21T07:36:06.417Z,8.82
2023-08-21T07:38:52.737Z,9.35
2023-08-21T07:41:38.874Z,8.82
2023-08-21T07:44:25.025Z,8.90
2023-08-21T07:47:11.315Z,8.77
2023-08-21T07:49:58.616Z,8.95
2023-08-21T07:52:44.745Z,9.18
2023-08-21T07:55:30.674Z,9.52
2023-08-21T07:58:16.646Z,10.60
2023-08-21T08:01:02.819Z,10.60
2023-08-21T08:03:50.650Z,10.68
2023-08-21T08:06:37.146Z,11.02
2023-08-21T08:09:23.253Z,10.60
2023-08-21T08:12:10.127Z,11.40
2023-08-21T08:14:56.218Z,11.38
2023-08-21T08:17:42.255Z,11.35
2023-08-21T08:20:28.173Z,11.43
2023-08-21T08:23:14.276Z,10.40
2023-08-21T08:26:00.436Z,10.60
2023-08-21T08:28:47.960Z,11.00
2023-08-21T08:31:34.101Z,10.50
2023-08-21T08:34:21.666Z,9.30
2023-08-21T08:37:07.575Z,9.45
2023-08-21T08:39:53.707Z,10.15
2023-08-21T08:42:40.426Z,9.30
2023-08-21T08:45:33.669Z,9.23
2023-08-21T08:48:21.928Z,9.40
2023-08-21T08:51:08.240Z,9.68
2023-08-21T08:53:54.307Z,9.57
2023-08-21T08:56:40.400Z,9.30
2023-08-21T08:59:26.865Z,8.95
2023-08-21T09:02:13.123Z,9.15
2023-08-21T09:04:59.786Z,8.55
2023-08-21T09:07:45.959Z,9.25
2023-08-21T09:10:32.310Z,9.13
2023-08-21T09:13:20.006Z,9.20
2023-08-21T09:16:06.553Z,8.80
2023-08-21T09:18:55.193Z,10.27
2023-08-21T09:21:41.644Z,10.15
2023-08-21T09:24:27.724Z,9.77
2023-08-21T09:27:18.485Z,10.25
2023-08-21T09:30:10.590Z,9.35
2023-08-21T09:32:59.081Z,10.35
2023-08-21T09:35:45.019Z,10.70
2023-08-21T09:38:31.545Z,10.23
2023-08-21T09:41:20.783Z,9.95
2023-08-21T09:44:07.034Z,9.07
2023-08-21T09:46:53.336Z,8.80
2023-08-21T09:49:40.588Z,8.90
2023-08-21T09:52:27.478Z,8.98
2023-08-21T09:55:14.975Z,9.68
2023-08-21T09:58:02.057Z,8.77
2023-08-21T10:00:50.572Z,8.57
2023-08-21T10:03:37.363Z,9.48
2023-08-21T10:06:25.073Z,8.32
2023-08-21T10:09:11.258Z,9.65
2023-08-21T10:11:57.714Z,8.65
2023-08-21T10:14:43.882Z,8.75
2023-08-21T10:17:29.950Z,9.10
2023-08-21T10:20:23.600Z,8.30
2023-08-21T10:23:09.434Z,8.63
2023-08-21T10:26:00.549Z,13.07
2023-08-21T10:31:44.425Z,14.82
2023-08-21T10:34:35.958Z,10.18
2023-08-21T10:37:23.254Z,10.43
2023-08-21T10:40:13.591Z,11.45
2023-08-21T10:43:00.507Z,9.43
2023-08-21T10:45:58.575Z,7.95
2023-08-21T10:48:45.104Z,7.85
2023-08-21T10:51:31.415Z,8.00
2023-08-21T10:54:17.555Z,7.50
2023-08-21T10:57:04.133Z,8.07
2023-08-21T10:59:55.772Z,8.18
2023-08-21T11:02:47.292Z,8.18
2023-08-21T11:05:33.337Z,8.40
2023-08-21T11:08:20.064Z,7.10
2023-08-21T11:11:07.791Z,6.85
2023-08-21T11:13:55.784Z,6.45
2023-08-21T11:16:42.970Z,6.45
2023-08-21T11:19:31.998Z,7.40
2023-08-21T11:22:18.062Z,7.10
2023-08-21T11:25:05.109Z,7.20
2023-08-21T11:27:51.127Z,7.78
2023-08-21T11:30:37.135Z,7.07
2023-08-21T11:33:23.693Z,7.63
2023-08-21T11:36:10.054Z,8.20
2023-08-21T11:39:01.213Z,8.82
2023-08-21T11:42:00.108Z,10.63
2023-08-21T11:44:50.970Z,10.52
2023-08-21T11:47:37.625Z,9.10
2023-08-21T11:50:24.173Z,8.38
2023-08-21T11:53:12.007Z,12.18
2023-08-21T11:55:58.334Z,9.00
2023-08-21T11:58:50.351Z,7.88
2023-08-21T12:01:36.474Z,11.18
2023-08-21T12:04:22.865Z,7.32
2023-08-21T12:07:08.984Z,8.43
2023-08-21T12:09:54.983Z,8.13
2023-08-21T12:12:41.044Z,7.03
2023-08-21T12:15:26.966Z,6.93
2023-08-21T12:18:13.497Z,5.88
2023-08-21T12:21:00.011Z,5.70
2023-08-21T12:23:46.397Z,5.55
2023-08-21T12:26:44.692Z,5.47
2023-08-21T12:29:35.861Z,5.93
2023-08-21T12:32:25.231Z,6.25
2023-08-21T12:35:13.346Z,6.50
2023-08-21T12:38:00.050Z,6.95
2023-08-21T12:40:46.254Z,9.30
2023-08-21T12:43:32.682Z,7.72
2023-08-21T12:46:18.823Z,7.88
2023-08-21T12:49:05.509Z,7.22
2023-08-21T12:51:51.653Z,7.35
2023-08-21T12:54:37.746Z,7.38
2023-08-21T12:57:24.019Z,6.75
2023-08-21T13:00:12.899Z,6.45
2023-08-21T13:02:59.550Z,8.20
2023-08-21T13:05:45.760Z,7.13
2023-08-21T13:08:32.379Z,8.38
2023-08-21T13:11:18.625Z,8.00
2023-08-21T13:14:04.833Z,10.07
2023-08-21T13:16:51.092Z,8.60
2023-08-21T13:19:37.154Z,7.88
2023-08-21T13:22:23.312Z,7.43
2023-08-21T13:25:09.721Z,7.90
2023-08-21T13:27:56.339Z,12.57
2023-08-21T13:30:54.085Z,11.13
2023-08-21T13:33:51.899Z,9.68
2023-08-21T13:36:39.363Z,9.40
2023-08-21T13:39:27.476Z,8.70
2023-08-21T13:42:13.598Z,6.80
2023-08-21T13:44:59.577Z,11.43
2023-08-21T13:47:48.514Z,7.20
2023-08-21T13:50:34.873Z,13.32
2023-08-21T13:53:22.127Z,18.90
2023-08-21T13:56:08.079Z,10.82
2023-08-21T13:58:54.395Z,8.45
2023-08-21T14:01:40.482Z,8.18
2023-08-21T14:04:27.377Z,7.00
2023-08-21T14:07:14.057Z,8.13
2023-08-21T14:10:00.401Z,8.23
2023-08-21T14:12:46.628Z,6.78
2023-08-21T14:15:32.858Z,6.68
2023-08-21T14:18:18.980Z,7.10
2023-08-21T14:21:05.134Z,8.35
2023-08-21T14:23:51.287Z,8.00
2023-08-21T14:26:37.277Z,8.93
2023-08-21T14:29:23.480Z,9.00
2023-08-21T14:32:10.921Z,8.27
2023-08-21T14:34:57.077Z,8.00
2023-08-21T14:37:43.592Z,10.38
2023-08-21T14:40:29.778Z,7.90
2023-08-21T14:43:16.113Z,6.80
2023-08-21T14:46:02.224Z,5.95
2023-08-21T14:48:48.650Z,6.30
2023-08-21T14:51:34.900Z,6.30
2023-08-21T14:54:21.550Z,7.03
2023-08-21T14:57:07.681Z,8.52
2023-08-21T14:59:53.582Z,7.43
2023-08-21T15:02:39.753Z,6.00
2023-08-21T15:05:26.046Z,6.60
2023-08-21T15:08:12.337Z,6.18
2023-08-21T15:10:58.567Z,6.65
2023-08-21T15:13:44.836Z,6.70
2023-08-21T15:16:31.513Z,6.88
2023-08-21T15:19:17.693Z,6.13
2023-08-21T15:22:03.887Z,5.68
2023-08-21T15:24:50.069Z,5.38
2023-08-21T15:27:36.912Z,4.70
2023-08-21T15:30:23.528Z,5.13
2023-08-21T15:33:09.659Z,5.30
2023-08-21T15:35:55.568Z,5.47
2023-08-21T15:38:41.674Z,5.35
2023-08-21T15:41:27.671Z,5.93
2023-08-21T15:44:13.520Z,6.00
2023-08-21T15:47:24.177Z,6.25
2023-08-21T15:50:06.483Z,5.03
2023-08-21T15:52:52.681Z,5.30
2023-08-21T15:55:38.690Z,7.10
2023-08-21T15:58:24.847Z,6.40
2023-08-21T16:01:11.045Z,5.95
2023-08-21T16:03:57.005Z,5.85
2023-08-21T16:06:42.970Z,6.53
2023-08-21T16:09:29.038Z,5.82
2023-08-21T16:12:14.996Z,5.70
2023-08-21T16:15:01.445Z,5.90
2023-08-21T16:17:48.290Z,6.22
2023-08-21T16:20:34.784Z,6.07
2023-08-21T16:23:20.936Z,8.02
2023-08-21T16:26:06.967Z,10.95
2023-08-21T16:28:53.126Z,11.57
2023-08-21T16:31:39.135Z,13.60
2023-08-21T16:34:25.345Z,13.02
2023-08-21T16:37:11.244Z,14.90
2023-08-21T16:39:57.065Z,14.68
2023-08-21T16:42:43.332Z,14.98
2023-08-21T16:45:29.508Z,11.48
2023-08-21T16:48:15.407Z,7.82
2023-08-21T16:51:01.384Z,12.68
2023-08-21T16:53:47.304Z,11.70
2023-08-21T16:56:33.423Z,11.05
2023-08-21T16:59:19.847Z,12.65
2023-08-21T17:02:05.939Z,12.10
2023-08-21T17:04:52.747Z,13.35
2023-08-21T17:07:39.389Z,13.63
2023-08-21T17:10:25.744Z,13.82
2023-08-21T17:13:12.179Z,10.20
2023-08-21T17:16:00.292Z,11.15
2023-08-21T17:18:46.676Z,13.00
2023-08-21T17:21:32.993Z,12.45
2023-08-21T17:24:20.423Z,10.13
2023-08-21T17:27:06.332Z,11.43
2023-08-21T17:29:53.147Z,12.60
2023-08-21T17:32:39.527Z,15.50
2023-08-21T17:35:26.270Z,19.52
2023-08-21T17:38:12.159Z,20.90
2023-08-21T17:40:57.978Z,18.20
2023-08-21T17:43:44.650Z,19.55
2023-08-21T17:46:30.881Z,16.63
2023-08-21T17:49:17.065Z,13.85
2023-08-21T17:52:03.647Z,13.20
2023-08-21T17:54:49.897Z,12.65
2023-08-21T17:57:37.878Z,12.73
2023-08-21T18:00:24.655Z,9.05
2023-08-21T18:03:10.800Z,10.25
2023-08-21T18:05:56.732Z,13.50
2023-08-21T18:08:43.313Z,25.67
2023-08-21T18:11:29.319Z,61.05
2023-08-21T18:14:15.396Z,69.50
2023-08-21T18:17:04.618Z,26.33
2023-08-21T18:19:51.613Z,22.48
2023-08-21T18:22:37.738Z,20.35
2023-08-21T18:25:23.950Z,17.15
2023-08-21T18:28:10.541Z,13.75
2023-08-21T18:30:58.092Z,14.73
2023-08-21T18:33:44.395Z,14.73
2023-08-21T18:36:34.642Z,15.05
2023-08-21T18:39:20.777Z,13.77
2023-08-21T18:42:06.781Z,13.50
2023-08-21T18:44:53.279Z,13.00
2023-08-21T18:47:40.190Z,12.00
2023-08-21T18:50:43.362Z,12.27
2023-08-21T18:53:31.981Z,10.32
2023-08-21T18:56:18.187Z,10.65
2023-08-21T18:59:04.162Z,9.30
2023-08-21T19:01:50.281Z,9.52
2023-08-21T19:04:36.262Z,11.10
2023-08-21T19:07:22.577Z,10.35
2023-08-21T19:10:10.727Z,10.32
2023-08-21T19:12:57.309Z,9.98
2023-08-21T19:15:43.275Z,9.20
2023-08-21T19:18:29.526Z,10.43
2023-08-21T19:21:15.765Z,11.27
2023-08-21T19:24:01.892Z,11.52
2023-08-21T19:26:47.922Z,9.73
2023-08-21T19:29:34.042Z,15.02
2023-08-21T19:32:20.174Z,17.48
2023-08-21T19:35:06.674Z,13.75
2023-08-21T19:37:53.569Z,12.23
2023-08-21T19:40:40.042Z,10.68
2023-08-21T19:43:26.429Z,19.02
2023-08-21T19:46:13.244Z,20.00
2023-08-21T19:48:59.516Z,19.02
2023-08-21T19:51:46.059Z,16.40
2023-08-21T19:54:32.570Z,12.98
2023-08-21T19:57:18.868Z,11.10
2023-08-21T20:00:06.552Z,11.35
2023-08-21T20:02:52.783Z,10.60
2023-08-21T20:05:39.636Z,10.82
2023-08-21T20:08:25.622Z,9.80
2023-08-21T20:11:11.822Z,8.80
2023-08-21T20:13:57.921Z,9.93
2023-08-21T20:16:43.998Z,9.30
2023-08-21T20:19:30.212Z,8.40
2023-08-21T20:22:16.388Z,8.38
2023-08-21T20:25:03.763Z,8.82
2023-08-21T20:27:50.293Z,8.95
2023-08-21T20:30:36.559Z,8.95
2023-08-21T20:33:22.657Z,9.73
2023-08-21T20:36:08.418Z,15.70
2023-08-21T20:38:54.625Z,20.63
2023-08-21T20:41:40.590Z,20.35
2023-08-21T20:44:26.437Z,20.42
2023-08-21T20:47:13.062Z,13.13
2023-08-21T20:50:00.455Z,13.63
2023-08-21T20:52:48.460Z,14.05
2023-08-21T20:55:34.790Z,11.75
2023-08-21T20:58:21.614Z,10.65
2023-08-21T21:01:08.033Z,10.70
2023-08-21T21:03:54.132Z,10.07
2023-08-21T21:06:40.356Z,9.75
2023-08-21T21:09:26.610Z,11.70
2023-08-21T21:12:12.952Z,10.55
2023-08-21T21:14:59.362Z,10.32
2023-08-21T21:17:46.581Z,9.60
2023-08-21T21:20:32.558Z,9.38
2023-08-21T21:23:18.525Z,8.55
2023-08-21T21:26:04.759Z,8.75
2023-08-21T21:28:50.786Z,9.82
2023-08-21T21:31:37.208Z,9.20
2023-08-21T21:34:23.404Z,8.32
2023-08-21T21:37:10.079Z,8.18
2023-08-21T21:39:56.518Z,8.90
2023-08-21T21:42:42.769Z,9.23
2023-08-21T21:45:28.908Z,8.85
2023-08-21T21:48:15.205Z,11.20
2023-08-21T21:51:01.415Z,12.05
2023-08-21T21:53:47.631Z,11.00
2023-08-21T21:56:33.476Z,10.35
2023-08-21T21:59:19.592Z,9.40
2023-08-21T22:02:05.677Z,9.98
2023-08-21T22:04:51.665Z,10.13
2023-08-21T22:07:37.938Z,9.80
2023-08-21T22:10:24.128Z,9.98
2023-08-21T22:13:10.268Z,8.48
2023-08-21T22:15:56.585Z,10.50
2023-08-21T22:18:42.360Z,9.45
2023-08-21T22:21:28.436Z,9.25
2023-08-21T22:24:14.591Z,9.95
2023-08-21T22:27:00.676Z,9.60
2023-08-21T22:29:46.707Z,9.00
2023-08-21T22:32:32.716Z,9.10
2023-08-21T22:35:19.093Z,9.02
2023-08-21T22:38:05.083Z,9.00
2023-08-21T22:40:51.146Z,8.70
2023-08-21T22:43:37.237Z,9.52
2023-08-21T22:46:23.367Z,10.57
2023-08-21T22:49:09.246Z,9.63
2023-08-21T22:51:55.196Z,9.65
2023-08-21T22:54:41.706Z,10.10
2023-08-21T22:57:27.721Z,9.48
2023-08-21T23:00:15.119Z,10.85
2023-08-21T23:03:01.173Z,12.60
2023-08-21T23:05:57.346Z,11.40
2023-08-21T23:08:43.494Z,12.35
2023-08-21T23:11:29.887Z,12.88
2023-08-21T23:14:15.946Z,13.98
2023-08-21T23:17:05.899Z,15.00
2023-08-21T23:19:52.215Z,14.32
2023-08-21T23:22:38.460Z,14.52
2023-08-21T23:25:24.743Z,13.95
2023-08-21T23:28:10.917Z,14.05
2023-08-21T23:30:57.372Z,14.73
2023-08-21T23:33:43.342Z,14.43
2023-08-21T23:36:29.464Z,12.70
2023-08-21T23:39:15.627Z,12.20
2023-08-21T23:42:01.847Z,12.13
2023-08-21T23:44:48.008Z,11.85
2023-08-21T23:47:34.064Z,12.43
2023-08-21T23:50:20.374Z,16.23
2023-08-21T23:53:07.773Z,16.15
2023-08-21T23:55:54.971Z,17.33
2023-08-21T23:58:42.165Z,19.73
